sensor_id;sensor_type;location;lat;lon;timestamp;P1;durP1;ratioP1;P2;durP2;ratioP2
35602;SDS011;21725;50.836;4.368;2023-11-21T00:02:38;35.25;;;20.55;;
35602;SDS011;21725;50.836;4.368;2023-11-21T00:05:41;39.42;;;22.88;;
35602;SDS011;21725;50.836;4.368;2023-11-21T00:08:44;42.35;;;21.33;;
35602;SDS011;21725;50.836;4.368;2023-11-21T00:11:45;34.88;;;20.33;;
35602;SDS011;21725;50.836;4.368;2023-11-21T00:14:46;39.00;;;20.90;;
35602;SDS011;21725;50.836;4.368;2023-11-21T00:17:47;35.78;;;20.42;;
35602;SDS011;21725;50.836;4.368;2023-11-21T00:20:47;31.83;;;19.65;;
35602;SDS011;21725;50.836;4.368;2023-11-21T00:23:48;36.08;;;19.92;;
35602;SDS011;21725;50.836;4.368;2023-11-21T00:26:49;41.67;;;21.88;;
35602;SDS011;21725;50.836;4.368;2023-11-21T00:29:53;40.03;;;22.15;;
35602;SDS011;21725;50.836;4.368;2023-11-21T00:32:57;34.42;;;21.20;;
35602;SDS011;21725;50.836;4.368;2023-11-21T00:35:57;39.97;;;21.50;;
35602;SDS011;21725;50.836;4.368;2023-11-21T00:38:58;37.00;;;22.52;;
35602;SDS011;21725;50.836;4.368;2023-11-21T00:41:59;40.70;;;24.25;;
35602;SDS011;21725;50.836;4.368;2023-11-21T00:45:00;39.90;;;22.83;;
35602;SDS011;21725;50.836;4.368;2023-11-21T00:48:03;38.47;;;23.63;;
35602;SDS011;21725;50.836;4.368;2023-11-21T00:51:08;44.92;;;24.02;;
35602;SDS011;21725;50.836;4.368;2023-11-21T00:54:11;35.20;;;22.15;;
35602;SDS011;21725;50.836;4.368;2023-11-21T00:57:17;36.17;;;21.83;;
35602;SDS011;21725;50.836;4.368;2023-11-21T01:00:20;37.15;;;22.52;;
35602;SDS011;21725;50.836;4.368;2023-11-21T01:03:23;38.38;;;22.15;;
35602;SDS011;21725;50.836;4.368;2023-11-21T01:06:26;34.30;;;21.10;;
35602;SDS011;21725;50.836;4.368;2023-11-21T01:09:27;42.67;;;22.67;;
35602;SDS011;21725;50.836;4.368;2023-11-21T01:12:31;38.53;;;21.98;;
35602;SDS011;21725;50.836;4.368;2023-11-21T01:15:34;30.20;;;19.45;;
35602;SDS011;21725;50.836;4.368;2023-11-21T01:18:35;34.78;;;20.70;;
35602;SDS011;21725;50.836;4.368;2023-11-21T01:21:38;32.78;;;20.48;;
35602;SDS011;21725;50.836;4.368;2023-11-21T01:24:42;32.67;;;19.80;;
35602;SDS011;21725;50.836;4.368;2023-11-21T01:27:47;30.38;;;19.05;;
35602;SDS011;21725;50.836;4.368;2023-11-21T01:30:50;30.88;;;19.50;;
35602;SDS011;21725;50.836;4.368;2023-11-21T01:33:51;34.72;;;19.92;;
35602;SDS011;21725;50.836;4.368;2023-11-21T01:36:59;29.98;;;17.83;;
35602;SDS011;21725;50.836;4.368;2023-11-21T01:40:01;30.35;;;18.80;;
35602;SDS011;21725;50.836;4.368;2023-11-21T01:43:05;31.17;;;17.48;;
35602;SDS011;21725;50.836;4.368;2023-11-21T01:46:16;28.58;;;17.10;;
35602;SDS011;21725;50.836;4.368;2023-11-21T01:49:19;33.78;;;17.00;;
35602;SDS011;21725;50.836;4.368;2023-11-21T01:52:20;29.80;;;17.48;;
35602;SDS011;21725;50.836;4.368;2023-11-21T01:55:21;29.10;;;18.15;;
35602;SDS011;21725;50.836;4.368;2023-11-21T01:58:27;33.72;;;20.45;;
35602;SDS011;21725;50.836;4.368;2023-11-21T02:01:28;31.77;;;18.95;;
35602;SDS011;21725;50.836;4.368;2023-11-21T02:04:41;35.42;;;18.92;;
35602;SDS011;21725;50.836;4.368;2023-11-21T02:07:41;34.50;;;19.67;;
35602;SDS011;21725;50.836;4.368;2023-11-21T02:10:45;29.85;;;18.02;;
35602;SDS011;21725;50.836;4.368;2023-11-21T02:13:47;30.38;;;16.83;;
35602;SDS011;21725;50.836;4.368;2023-11-21T02:16:52;32.10;;;17.27;;
35602;SDS011;21725;50.836;4.368;2023-11-21T02:19:56;31.50;;;19.20;;
35602;SDS011;21725;50.836;4.368;2023-11-21T02:23:00;28.50;;;18.30;;
35602;SDS011;21725;50.836;4.368;2023-11-21T02:26:04;31.25;;;17.85;;
35602;SDS011;21725;50.836;4.368;2023-11-21T02:29:14;29.55;;;17.45;;
35602;SDS011;21725;50.836;4.368;2023-11-21T02:32:18;32.65;;;19.27;;
35602;SDS011;21725;50.836;4.368;2023-11-21T02:35:22;27.90;;;17.25;;
35602;SDS011;21725;50.836;4.368;2023-11-21T02:38:25;33.78;;;18.10;;
35602;SDS011;21725;50.836;4.368;2023-11-21T02:41:26;28.23;;;17.98;;
35602;SDS011;21725;50.836;4.368;2023-11-21T02:44:30;28.40;;;16.50;;
35602;SDS011;21725;50.836;4.368;2023-11-21T02:47:33;31.33;;;18.67;;
35602;SDS011;21725;50.836;4.368;2023-11-21T02:50:36;34.85;;;19.38;;
35602;SDS011;21725;50.836;4.368;2023-11-21T02:53:37;33.30;;;16.40;;
35602;SDS011;21725;50.836;4.368;2023-11-21T02:56:38;33.05;;;15.60;;
35602;SDS011;21725;50.836;4.368;2023-11-21T02:59:40;33.38;;;16.58;;
35602;SDS011;21725;50.836;4.368;2023-11-21T03:02:41;25.30;;;15.20;;
35602;SDS011;21725;50.836;4.368;2023-11-21T03:05:44;23.25;;;14.45;;
35602;SDS011;21725;50.836;4.368;2023-11-21T03:08:58;20.58;;;14.05;;
35602;SDS011;21725;50.836;4.368;2023-11-21T03:11:58;19.20;;;13.55;;
35602;SDS011;21725;50.836;4.368;2023-11-21T03:14:59;22.65;;;12.95;;
35602;SDS011;21725;50.836;4.368;2023-11-21T03:18:02;27.13;;;12.13;;
35602;SDS011;21725;50.836;4.368;2023-11-21T03:21:05;23.20;;;13.10;;
35602;SDS011;21725;50.836;4.368;2023-11-21T03:24:08;21.38;;;12.75;;
35602;SDS011;21725;50.836;4.368;2023-11-21T03:27:09;24.08;;;13.77;;
35602;SDS011;21725;50.836;4.368;2023-11-21T03:30:12;32.40;;;14.85;;
35602;SDS011;21725;50.836;4.368;2023-11-21T03:33:19;28.15;;;15.43;;
35602;SDS011;21725;50.836;4.368;2023-11-21T03:36:25;34.33;;;17.17;;
35602;SDS011;21725;50.836;4.368;2023-11-21T03:39:26;30.75;;;17.10;;
35602;SDS011;21725;50.836;4.368;2023-11-21T03:42:29;28.80;;;18.27;;
35602;SDS011;21725;50.836;4.368;2023-11-21T03:45:30;27.45;;;15.90;;
35602;SDS011;21725;50.836;4.368;2023-11-21T03:48:33;27.63;;;14.73;;
35602;SDS011;21725;50.836;4.368;2023-11-21T03:51:37;26.08;;;16.65;;
35602;SDS011;21725;50.836;4.368;2023-11-21T03:54:40;32.40;;;17.58;;
35602;SDS011;21725;50.836;4.368;2023-11-21T03:57:41;30.75;;;16.80;;
35602;SDS011;21725;50.836;4.368;2023-11-21T04:00:42;36.40;;;19.40;;
35602;SDS011;21725;50.836;4.368;2023-11-21T04:03:43;30.52;;;18.80;;
35602;SDS011;21725;50.836;4.368;2023-11-21T04:06:43;34.60;;;19.65;;
35602;SDS011;21725;50.836;4.368;2023-11-21T04:09:44;36.63;;;19.92;;
35602;SDS011;21725;50.836;4.368;2023-11-21T04:12:47;36.40;;;20.50;;
35602;SDS011;21725;50.836;4.368;2023-11-21T04:15:48;30.85;;;20.95;;
35602;SDS011;21725;50.836;4.368;2023-11-21T04:18:49;38.05;;;20.35;;
35602;SDS011;21725;50.836;4.368;2023-11-21T04:21:50;28.20;;;20.20;;
35602;SDS011;21725;50.836;4.368;2023-11-21T04:24:53;31.42;;;20.08;;
35602;SDS011;21725;50.836;4.368;2023-11-21T04:27:55;34.45;;;22.60;;
35602;SDS011;21725;50.836;4.368;2023-11-21T04:31:01;33.55;;;20.70;;
35602;SDS011;21725;50.836;4.368;2023-11-21T04:34:02;27.85;;;19.98;;
35602;SDS011;21725;50.836;4.368;2023-11-21T04:37:10;34.05;;;20.08;;
35602;SDS011;21725;50.836;4.368;2023-11-21T04:40:11;32.00;;;20.65;;
35602;SDS011;21725;50.836;4.368;2023-11-21T04:43:15;33.85;;;19.65;;
35602;SDS011;21725;50.836;4.368;2023-11-21T04:46:18;34.50;;;21.73;;
35602;SDS011;21725;50.836;4.368;2023-11-21T04:49:22;31.30;;;19.35;;
35602;SDS011;21725;50.836;4.368;2023-11-21T04:52:26;28.75;;;19.40;;
35602;SDS011;21725;50.836;4.368;2023-11-21T04:55:26;34.35;;;18.85;;
35602;SDS011;21725;50.836;4.368;2023-11-21T04:58:30;34.70;;;19.50;;
35602;SDS011;21725;50.836;4.368;2023-11-21T05:01:34;36.53;;;19.98;;
35602;SDS011;21725;50.836;4.368;2023-11-21T05:04:38;30.77;;;19.48;;
35602;SDS011;21725;50.836;4.368;2023-11-21T05:07:39;31.33;;;18.65;;
35602;SDS011;21725;50.836;4.368;2023-11-21T05:10:40;30.40;;;18.00;;
35602;SDS011;21725;50.836;4.368;2023-11-21T05:13:41;30.48;;;18.38;;
35602;SDS011;21725;50.836;4.368;2023-11-21T05:16:43;28.42;;;17.65;;
35602;SDS011;21725;50.836;4.368;2023-11-21T05:19:48;27.58;;;18.00;;
35602;SDS011;21725;50.836;4.368;2023-11-21T05:22:49;30.83;;;18.92;;
35602;SDS011;21725;50.836;4.368;2023-11-21T05:25:53;30.17;;;18.10;;
35602;SDS011;21725;50.836;4.368;2023-11-21T05:28:57;27.45;;;18.63;;
35602;SDS011;21725;50.836;4.368;2023-11-21T05:31:58;31.30;;;19.13;;
35602;SDS011;21725;50.836;4.368;2023-11-21T05:34:58;29.08;;;18.42;;
35602;SDS011;21725;50.836;4.368;2023-11-21T05:37:59;26.65;;;17.40;;
35602;SDS011;21725;50.836;4.368;2023-11-21T05:41:00;29.73;;;17.45;;
35602;SDS011;21725;50.836;4.368;2023-11-21T05:44:04;28.27;;;18.50;;
35602;SDS011;21725;50.836;4.368;2023-11-21T05:47:07;30.02;;;18.23;;
35602;SDS011;21725;50.836;4.368;2023-11-21T05:50:11;33.10;;;19.23;;
35602;SDS011;21725;50.836;4.368;2023-11-21T05:53:24;27.42;;;17.08;;
35602;SDS011;21725;50.836;4.368;2023-11-21T05:56:28;26.75;;;17.40;;
35602;SDS011;21725;50.836;4.368;2023-11-21T05:59:31;32.50;;;19.15;;
35602;SDS011;21725;50.836;4.368;2023-11-21T06:02:31;29.58;;;19.13;;
35602;SDS011;21725;50.836;4.368;2023-11-21T06:05:32;27.73;;;17.60;;
35602;SDS011;21725;50.836;4.368;2023-11-21T06:08:36;36.97;;;18.90;;
35602;SDS011;21725;50.836;4.368;2023-11-21T06:11:39;28.27;;;16.55;;
35602;SDS011;21725;50.836;4.368;2023-11-21T06:14:40;31.75;;;18.70;;
35602;SDS011;21725;50.836;4.368;2023-11-21T06:17:43;34.88;;;18.20;;
35602;SDS011;21725;50.836;4.368;2023-11-21T06:20:45;29.05;;;18.17;;
35602;SDS011;21725;50.836;4.368;2023-11-21T06:23:56;39.88;;;20.50;;
35602;SDS011;21725;50.836;4.368;2023-11-21T06:27:00;28.27;;;18.23;;
35602;SDS011;21725;50.836;4.368;2023-11-21T06:30:06;35.05;;;19.30;;
35602;SDS011;21725;50.836;4.368;2023-11-21T06:33:11;42.55;;;21.45;;
35602;SDS011;21725;50.836;4.368;2023-11-21T06:36:17;31.90;;;18.83;;
35602;SDS011;21725;50.836;4.368;2023-11-21T06:39:18;34.08;;;20.13;;
35602;SDS011;21725;50.836;4.368;2023-11-21T06:42:22;34.58;;;18.90;;
35602;SDS011;21725;50.836;4.368;2023-11-21T06:45:26;30.30;;;18.50;;
35602;SDS011;21725;50.836;4.368;2023-11-21T06:48:26;28.90;;;19.48;;
35602;SDS011;21725;50.836;4.368;2023-11-21T06:51:27;28.38;;;19.08;;
35602;SDS011;21725;50.836;4.368;2023-11-21T06:54:30;33.15;;;20.27;;
35602;SDS011;21725;50.836;4.368;2023-11-21T06:57:33;27.65;;;18.20;;
35602;SDS011;21725;50.836;4.368;2023-11-21T07:00:37;30.02;;;18.55;;
35602;SDS011;21725;50.836;4.368;2023-11-21T07:03:41;25.83;;;17.30;;
35602;SDS011;21725;50.836;4.368;2023-11-21T07:06:45;23.30;;;16.52;;
35602;SDS011;21725;50.836;4.368;2023-11-21T07:09:49;30.92;;;21.05;;
35602;SDS011;21725;50.836;4.368;2023-11-21T07:12:49;31.83;;;19.98;;
35602;SDS011;21725;50.836;4.368;2023-11-21T07:15:53;35.90;;;23.92;;
35602;SDS011;21725;50.836;4.368;2023-11-21T07:18:54;46.20;;;28.23;;
35602;SDS011;21725;50.836;4.368;2023-11-21T07:21:57;31.73;;;20.02;;
35602;SDS011;21725;50.836;4.368;2023-11-21T07:25:01;31.13;;;21.85;;
35602;SDS011;21725;50.836;4.368;2023-11-21T07:28:04;33.25;;;21.02;;
35602;SDS011;21725;50.836;4.368;2023-11-21T07:31:12;40.13;;;27.58;;
35602;SDS011;21725;50.836;4.368;2023-11-21T07:34:16;36.17;;;20.45;;
35602;SDS011;21725;50.836;4.368;2023-11-21T07:37:17;37.28;;;23.00;;
35602;SDS011;21725;50.836;4.368;2023-11-21T07:40:18;38.22;;;22.98;;
35602;SDS011;21725;50.836;4.368;2023-11-21T07:43:22;58.50;;;27.48;;
35602;SDS011;21725;50.836;4.368;2023-11-21T07:46:22;69.10;;;40.90;;
35602;SDS011;21725;50.836;4.368;2023-11-21T07:49:26;58.92;;;31.83;;
35602;SDS011;21725;50.836;4.368;2023-11-21T07:52:32;55.38;;;36.35;;
35602;SDS011;21725;50.836;4.368;2023-11-21T07:56:00;46.88;;;33.83;;
35602;SDS011;21725;50.836;4.368;2023-11-21T07:59:09;51.40;;;34.63;;
35602;SDS011;21725;50.836;4.368;2023-11-21T08:02:13;51.92;;;33.60;;
35602;SDS011;21725;50.836;4.368;2023-11-21T08:05:16;53.20;;;31.90;;
35602;SDS011;21725;50.836;4.368;2023-11-21T08:08:17;48.60;;;28.42;;
35602;SDS011;21725;50.836;4.368;2023-11-21T08:11:21;49.20;;;27.35;;
35602;SDS011;21725;50.836;4.368;2023-11-21T08:14:35;64.38;;;26.42;;
35602;SDS011;21725;50.836;4.368;2023-11-21T08:17:39;55.17;;;31.25;;
35602;SDS011;21725;50.836;4.368;2023-11-21T08:20:42;50.67;;;25.60;;
35602;SDS011;21725;50.836;4.368;2023-11-21T08:23:43;44.47;;;24.00;;
35602;SDS011;21725;50.836;4.368;2023-11-21T08:26:54;43.53;;;25.55;;
35602;SDS011;21725;50.836;4.368;2023-11-21T08:30:15;54.35;;;27.23;;
35602;SDS011;21725;50.836;4.368;2023-11-21T08:33:19;47.40;;;28.20;;
35602;SDS011;21725;50.836;4.368;2023-11-21T08:36:33;47.05;;;30.35;;
35602;SDS011;21725;50.836;4.368;2023-11-21T08:39:41;42.40;;;25.95;;
35602;SDS011;21725;50.836;4.368;2023-11-21T08:42:45;47.92;;;28.00;;
35602;SDS011;21725;50.836;4.368;2023-11-21T08:45:46;57.95;;;32.30;;
35602;SDS011;21725;50.836;4.368;2023-11-21T08:48:51;40.97;;;27.00;;
35602;SDS011;21725;50.836;4.368;2023-11-21T08:52:02;44.55;;;25.30;;
35602;SDS011;21725;50.836;4.368;2023-11-21T08:55:09;50.22;;;25.80;;
35602;SDS011;21725;50.836;4.368;2023-11-21T08:58:14;55.92;;;28.58;;
35602;SDS011;21725;50.836;4.368;2023-11-21T09:04:46;55.67;;;25.23;;
35602;SDS011;21725;50.836;4.368;2023-11-21T09:07:47;48.78;;;26.05;;
35602;SDS011;21725;50.836;4.368;2023-11-21T09:10:54;41.67;;;24.38;;
35602;SDS011;21725;50.836;4.368;2023-11-21T09:14:16;45.60;;;26.50;;
35602;SDS011;21725;50.836;4.368;2023-11-21T09:17:22;49.35;;;26.40;;
35602;SDS011;21725;50.836;4.368;2023-11-21T09:20:34;46.03;;;26.45;;
35602;SDS011;21725;50.836;4.368;2023-11-21T09:23:46;53.17;;;26.73;;
35602;SDS011;21725;50.836;4.368;2023-11-21T09:26:53;47.00;;;24.30;;
35602;SDS011;21725;50.836;4.368;2023-11-21T09:29:54;54.78;;;23.52;;
35602;SDS011;21725;50.836;4.368;2023-11-21T09:33:17;57.10;;;29.15;;
35602;SDS011;21725;50.836;4.368;2023-11-21T09:36:30;56.28;;;27.30;;
35602;SDS011;21725;50.836;4.368;2023-11-21T09:39:41;53.15;;;26.92;;
35602;SDS011;21725;50.836;4.368;2023-11-21T09:42:49;56.05;;;26.42;;
35602;SDS011;21725;50.836;4.368;2023-11-21T09:46:18;99.88;;;49.10;;
35602;SDS011;21725;50.836;4.368;2023-11-21T09:49:31;53.15;;;26.02;;
35602;SDS011;21725;50.836;4.368;2023-11-21T09:53:03;59.45;;;26.83;;
35602;SDS011;21725;50.836;4.368;2023-11-21T09:56:30;49.85;;;25.05;;
35602;SDS011;21725;50.836;4.368;2023-11-21T09:59:37;51.92;;;23.98;;
35602;SDS011;21725;50.836;4.368;2023-11-21T10:02:41;47.65;;;23.55;;
35602;SDS011;21725;50.836;4.368;2023-11-21T10:05:58;47.00;;;23.65;;
35602;SDS011;21725;50.836;4.368;2023-11-21T10:09:03;46.92;;;23.92;;
35602;SDS011;21725;50.836;4.368;2023-11-21T10:15:52;32.25;;;20.20;;
35602;SDS011;21725;50.836;4.368;2023-11-21T10:19:07;29.45;;;16.70;;
35602;SDS011;21725;50.836;4.368;2023-11-21T10:22:40;24.25;;;15.98;;
35602;SDS011;21725;50.836;4.368;2023-11-21T10:25:43;18.83;;;13.68;;
35602;SDS011;21725;50.836;4.368;2023-11-21T10:29:10;19.20;;;12.93;;
35602;SDS011;21725;50.836;4.368;2023-11-21T10:32:29;23.35;;;15.38;;
35602;SDS011;21725;50.836;4.368;2023-11-21T10:38:53;19.17;;;13.60;;
35602;SDS011;21725;50.836;4.368;2023-11-21T10:41:57;18.52;;;13.45;;
35602;SDS011;21725;50.836;4.368;2023-11-21T10:45:03;28.15;;;14.07;;
35602;SDS011;21725;50.836;4.368;2023-11-21T10:48:20;22.52;;;15.48;;
35602;SDS011;21725;50.836;4.368;2023-11-21T10:51:23;22.63;;;14.93;;
35602;SDS011;21725;50.836;4.368;2023-11-21T10:54:36;24.13;;;15.25;;
35602;SDS011;21725;50.836;4.368;2023-11-21T10:57:41;26.48;;;15.93;;
35602;SDS011;21725;50.836;4.368;2023-11-21T11:00:44;29.63;;;17.02;;
35602;SDS011;21725;50.836;4.368;2023-11-21T11:03:45;26.55;;;16.23;;
35602;SDS011;21725;50.836;4.368;2023-11-21T11:07:01;27.05;;;17.33;;
35602;SDS011;21725;50.836;4.368;2023-11-21T11:10:23;27.83;;;17.70;;
35602;SDS011;21725;50.836;4.368;2023-11-21T11:13:49;33.15;;;18.20;;
35602;SDS011;21725;50.836;4.368;2023-11-21T11:17:10;27.13;;;18.40;;
35602;SDS011;21725;50.836;4.368;2023-11-21T11:20:20;30.13;;;20.70;;
35602;SDS011;21725;50.836;4.368;2023-11-21T11:27:15;28.65;;;18.92;;
35602;SDS011;21725;50.836;4.368;2023-11-21T11:34:45;32.38;;;21.38;;
35602;SDS011;21725;50.836;4.368;2023-11-21T11:38:01;31.23;;;19.85;;
35602;SDS011;21725;50.836;4.368;2023-11-21T11:41:06;34.05;;;20.77;;
35602;SDS011;21725;50.836;4.368;2023-11-21T11:47:58;30.40;;;21.92;;
35602;SDS011;21725;50.836;4.368;2023-11-21T11:51:26;25.88;;;17.73;;
35602;SDS011;21725;50.836;4.368;2023-11-21T11:54:38;26.13;;;19.63;;
35602;SDS011;21725;50.836;4.368;2023-11-21T11:57:39;23.95;;;17.58;;
35602;SDS011;21725;50.836;4.368;2023-11-21T12:00:46;21.52;;;16.48;;
35602;SDS011;21725;50.836;4.368;2023-11-21T12:07:23;13.80;;;11.23;;
35602;SDS011;21725;50.836;4.368;2023-11-21T12:10:29;15.77;;;12.60;;
35602;SDS011;21725;50.836;4.368;2023-11-21T12:13:34;18.08;;;12.48;;
35602;SDS011;21725;50.836;4.368;2023-11-21T12:16:45;17.23;;;12.48;;
35602;SDS011;21725;50.836;4.368;2023-11-21T12:19:48;16.88;;;11.40;;
35602;SDS011;21725;50.836;4.368;2023-11-21T12:22:53;16.33;;;11.77;;
35602;SDS011;21725;50.836;4.368;2023-11-21T12:25:55;18.02;;;10.75;;
35602;SDS011;21725;50.836;4.368;2023-11-21T12:28:58;13.57;;;9.63;;
35602;SDS011;21725;50.836;4.368;2023-11-21T12:32:11;15.38;;;10.15;;
35602;SDS011;21725;50.836;4.368;2023-11-21T12:35:31;14.30;;;10.20;;
35602;SDS011;21725;50.836;4.368;2023-11-21T12:38:36;13.57;;;10.82;;
35602;SDS011;21725;50.836;4.368;2023-11-21T12:41:37;13.43;;;10.18;;
35602;SDS011;21725;50.836;4.368;2023-11-21T12:44:58;14.90;;;10.05;;
35602;SDS011;21725;50.836;4.368;2023-11-21T12:48:19;16.27;;;9.43;;
35602;SDS011;21725;50.836;4.368;2023-11-21T12:51:26;14.30;;;8.35;;
35602;SDS011;21725;50.836;4.368;2023-11-21T12:54:48;16.42;;;8.60;;
35602;SDS011;21725;50.836;4.368;2023-11-21T12:57:54;16.85;;;9.40;;
35602;SDS011;21725;50.836;4.368;2023-11-21T13:01:08;15.93;;;8.60;;
35602;SDS011;21725;50.836;4.368;2023-11-21T13:04:11;17.02;;;9.00;;
35602;SDS011;21725;50.836;4.368;2023-11-21T13:07:12;18.80;;;8.98;;
35602;SDS011;21725;50.836;4.368;2023-11-21T13:10:27;19.42;;;10.60;;
35602;SDS011;21725;50.836;4.368;2023-11-21T13:13:34;13.48;;;10.00;;
35602;SDS011;21725;50.836;4.368;2023-11-21T13:16:34;13.50;;;9.73;;
35602;SDS011;21725;50.836;4.368;2023-11-21T13:19:39;17.13;;;11.35;;
35602;SDS011;21725;50.836;4.368;2023-11-21T13:22:46;13.07;;;9.38;;
35602;SDS011;21725;50.836;4.368;2023-11-21T13:26:01;12.65;;;9.98;;
35602;SDS011;21725;50.836;4.368;2023-11-21T13:29:04;19.67;;;11.43;;
35602;SDS011;21725;50.836;4.368;2023-11-21T13:32:05;19.73;;;10.70;;
35602;SDS011;21725;50.836;4.368;2023-11-21T13:35:07;17.23;;;11.18;;
35602;SDS011;21725;50.836;4.368;2023-11-21T13:38:12;15.77;;;9.43;;
35602;SDS011;21725;50.836;4.368;2023-11-21T13:41:30;13.30;;;9.75;;
35602;SDS011;21725;50.836;4.368;2023-11-21T13:44:30;16.00;;;10.05;;
35602;SDS011;21725;50.836;4.368;2023-11-21T13:47:38;15.68;;;9.43;;
35602;SDS011;21725;50.836;4.368;2023-11-21T13:50:40;16.10;;;9.32;;
35602;SDS011;21725;50.836;4.368;2023-11-21T13:53:50;12.63;;;9.18;;
35602;SDS011;21725;50.836;4.368;2023-11-21T13:56:52;10.38;;;9.10;;
35602;SDS011;21725;50.836;4.368;2023-11-21T13:59:55;14.30;;;10.35;;
35602;SDS011;21725;50.836;4.368;2023-11-21T14:03:04;13.30;;;8.85;;
35602;SDS011;21725;50.836;4.368;2023-11-21T14:06:09;13.32;;;9.43;;
35602;SDS011;21725;50.836;4.368;2023-11-21T14:09:18;12.07;;;8.00;;
35602;SDS011;21725;50.836;4.368;2023-11-21T14:12:25;10.40;;;7.20;;
35602;SDS011;21725;50.836;4.368;2023-11-21T14:15:26;7.95;;;5.35;;
35602;SDS011;21725;50.836;4.368;2023-11-21T14:18:32;9.65;;;5.43;;
35602;SDS011;21725;50.836;4.368;2023-11-21T14:21:47;7.13;;;5.13;;
35602;SDS011;21725;50.836;4.368;2023-11-21T14:25:08;11.23;;;5.53;;
35602;SDS011;21725;50.836;4.368;2023-11-21T14:28:12;10.10;;;5.50;;
35602;SDS011;21725;50.836;4.368;2023-11-21T14:31:27;7.10;;;5.03;;
35602;SDS011;21725;50.836;4.368;2023-11-21T14:34:31;10.15;;;5.95;;
35602;SDS011;21725;50.836;4.368;2023-11-21T14:37:32;8.30;;;5.57;;
35602;SDS011;21725;50.836;4.368;2023-11-21T14:40:35;7.18;;;5.43;;
35602;SDS011;21725;50.836;4.368;2023-11-21T14:43:36;9.18;;;5.05;;
35602;SDS011;21725;50.836;4.368;2023-11-21T14:46:41;9.20;;;5.55;;
35602;SDS011;21725;50.836;4.368;2023-11-21T14:49:47;10.18;;;5.45;;
35602;SDS011;21725;50.836;4.368;2023-11-21T14:52:52;8.63;;;5.05;;
35602;SDS011;21725;50.836;4.368;2023-11-21T14:55:59;8.23;;;5.18;;
35602;SDS011;21725;50.836;4.368;2023-11-21T14:59:04;7.70;;;5.22;;
35602;SDS011;21725;50.836;4.368;2023-11-21T15:02:16;8.82;;;5.93;;
35602;SDS011;21725;50.836;4.368;2023-11-21T15:05:21;8.18;;;5.82;;
35602;SDS011;21725;50.836;4.368;2023-11-21T15:08:24;8.75;;;5.63;;
35602;SDS011;21725;50.836;4.368;2023-11-21T15:11:34;10.90;;;6.03;;
35602;SDS011;21725;50.836;4.368;2023-11-21T15:14:37;13.52;;;7.28;;
35602;SDS011;21725;50.836;4.368;2023-11-21T15:17:38;8.18;;;5.43;;
35602;SDS011;21725;50.836;4.368;2023-11-21T15:20:42;9.65;;;5.65;;
35602;SDS011;21725;50.836;4.368;2023-11-21T15:23:44;10.73;;;6.55;;
35602;SDS011;21725;50.836;4.368;2023-11-21T15:26:45;9.90;;;6.78;;
35602;SDS011;21725;50.836;4.368;2023-11-21T15:29:45;11.75;;;5.80;;
35602;SDS011;21725;50.836;4.368;2023-11-21T15:32:47;10.82;;;6.07;;
35602;SDS011;21725;50.836;4.368;2023-11-21T15:35:55;10.75;;;6.32;;
35602;SDS011;21725;50.836;4.368;2023-11-21T15:38:56;10.65;;;6.22;;
35602;SDS011;21725;50.836;4.368;2023-11-21T15:41:59;9.57;;;5.93;;
35602;SDS011;21725;50.836;4.368;2023-11-21T15:45:04;11.30;;;7.18;;
35602;SDS011;21725;50.836;4.368;2023-11-21T15:48:08;9.35;;;6.35;;
35602;SDS011;21725;50.836;4.368;2023-11-21T15:51:11;9.00;;;5.82;;
35602;SDS011;21725;50.836;4.368;2023-11-21T15:54:15;8.55;;;5.93;;
35602;SDS011;21725;50.836;4.368;2023-11-21T15:57:24;11.30;;;6.45;;
35602;SDS011;21725;50.836;4.368;2023-11-21T16:00:35;13.10;;;7.32;;
35602;SDS011;21725;50.836;4.368;2023-11-21T16:03:37;11.13;;;8.05;;
35602;SDS011;21725;50.836;4.368;2023-11-21T16:06:47;15.88;;;8.60;;
35602;SDS011;21725;50.836;4.368;2023-11-21T16:09:48;12.63;;;8.35;;
35602;SDS011;21725;50.836;4.368;2023-11-21T16:12:51;9.70;;;7.07;;
35602;SDS011;21725;50.836;4.368;2023-11-21T16:15:52;11.60;;;7.38;;
35602;SDS011;21725;50.836;4.368;2023-11-21T16:18:54;13.18;;;7.68;;
35602;SDS011;21725;50.836;4.368;2023-11-21T16:21:58;16.08;;;8.32;;
35602;SDS011;21725;50.836;4.368;2023-11-21T16:25:02;10.40;;;7.18;;
35602;SDS011;21725;50.836;4.368;2023-11-21T16:28:11;16.60;;;8.85;;
35602;SDS011;21725;50.836;4.368;2023-11-21T16:31:21;12.93;;;8.65;;
35602;SDS011;21725;50.836;4.368;2023-11-21T16:34:24;10.57;;;7.47;;
35602;SDS011;21725;50.836;4.368;2023-11-21T16:37:26;11.85;;;7.25;;
35602;SDS011;21725;50.836;4.368;2023-11-21T16:40:29;12.18;;;7.63;;
35602;SDS011;21725;50.836;4.368;2023-11-21T16:43:30;11.52;;;7.15;;
35602;SDS011;21725;50.836;4.368;2023-11-21T16:46:31;11.27;;;7.07;;
35602;SDS011;21725;50.836;4.368;2023-11-21T16:49:34;11.60;;;7.60;;
35602;SDS011;21725;50.836;4.368;2023-11-21T16:52:43;10.68;;;6.72;;
35602;SDS011;21725;50.836;4.368;2023-11-21T16:55:51;15.00;;;7.38;;
35602;SDS011;21725;50.836;4.368;2023-11-21T16:58:52;11.20;;;6.75;;
35602;SDS011;21725;50.836;4.368;2023-11-21T17:01:55;10.52;;;6.47;;
35602;SDS011;21725;50.836;4.368;2023-11-21T17:04:58;13.90;;;6.65;;
35602;SDS011;21725;50.836;4.368;2023-11-21T17:08:02;10.48;;;7.05;;
35602;SDS011;21725;50.836;4.368;2023-11-21T17:11:13;12.38;;;7.18;;
35602;SDS011;21725;50.836;4.368;2023-11-21T17:14:14;9.65;;;5.95;;
35602;SDS011;21725;50.836;4.368;2023-11-21T17:17:35;10.77;;;6.75;;
35602;SDS011;21725;50.836;4.368;2023-11-21T17:20:43;10.60;;;6.65;;
35602;SDS011;21725;50.836;4.368;2023-11-21T17:23:44;11.32;;;7.20;;
35602;SDS011;21725;50.836;4.368;2023-11-21T17:26:52;10.40;;;7.95;;
35602;SDS011;21725;50.836;4.368;2023-11-21T17:29:52;10.40;;;6.47;;
35602;SDS011;21725;50.836;4.368;2023-11-21T17:32:58;13.10;;;7.63;;
35602;SDS011;21725;50.836;4.368;2023-11-21T17:35:59;10.48;;;7.60;;
35602;SDS011;21725;50.836;4.368;2023-11-21T17:39:02;14.93;;;8.57;;
35602;SDS011;21725;50.836;4.368;2023-11-21T17:42:08;13.27;;;9.35;;
35602;SDS011;21725;50.836;4.368;2023-11-21T17:45:12;12.20;;;8.07;;
35602;SDS011;21725;50.836;4.368;2023-11-21T17:48:16;12.20;;;8.05;;
35602;SDS011;21725;50.836;4.368;2023-11-21T17:51:21;13.27;;;8.18;;
35602;SDS011;21725;50.836;4.368;2023-11-21T17:54:27;11.57;;;7.72;;
35602;SDS011;21725;50.836;4.368;2023-11-21T17:57:28;12.27;;;8.27;;
35602;SDS011;21725;50.836;4.368;2023-11-21T18:00:32;12.90;;;8.98;;
35602;SDS011;21725;50.836;4.368;2023-11-21T18:03:33;13.50;;;9.52;;
35602;SDS011;21725;50.836;4.368;2023-11-21T18:06:34;14.57;;;9.27;;
35602;SDS011;21725;50.836;4.368;2023-11-21T18:09:53;15.70;;;9.88;;
35602;SDS011;21725;50.836;4.368;2023-11-21T18:12:54;16.63;;;11.43;;
35602;SDS011;21725;50.836;4.368;2023-11-21T18:15:57;17.33;;;11.93;;
35602;SDS011;21725;50.836;4.368;2023-11-21T18:19:00;17.95;;;11.77;;
35602;SDS011;21725;50.836;4.368;2023-11-21T18:22:01;20.60;;;11.52;;
35602;SDS011;21725;50.836;4.368;2023-11-21T18:25:06;30.15;;;17.98;;
35602;SDS011;21725;50.836;4.368;2023-11-21T18:28:07;18.13;;;12.98;;
35602;SDS011;21725;50.836;4.368;2023-11-21T18:31:19;15.43;;;10.27;;
35602;SDS011;21725;50.836;4.368;2023-11-21T18:34:22;17.65;;;11.77;;
35602;SDS011;21725;50.836;4.368;2023-11-21T18:37:27;15.63;;;11.70;;